Time;durP1;ratioP1;P1;durP2;ratioP2;P2;SDS_P1;SDS_P2;PMS_P1;PMS_P2;Temp;Humidity;BMP_temperature;BMP_pressure;BME280_temperature;BME280_humidity;BME280_pressure;Samples;Min_cycle;Max_cycle;Signal;HPM_P1;HPM_P2
2022/01/15 00:01:01;;;;;;;14.98;4.00;;;9.90;99.90;;;;;;5110072;27;20035;-72
2022/01/15 00:03:27;;;;;;;8.10;4.20;;;10.20;99.90;;;;;;5109646;27;20634;-72
2022/01/15 00:05:54;;;;;;;9.23;4.15;;;9.60;99.90;;;;;;5109972;27;20078;-72
2022/01/15 00:08:21;;;;;;;38.03;5.38;;;10.80;99.90;;;;;;5111744;27;20839;-72
2022/01/15 00:10:47;;;;;;;30.42;5.05;;;10.80;99.90;;;;;;5127204;27;20165;-73
2022/01/15 00:13:23;;;;;;;28.50;4.10;;;10.40;99.90;;;;;;5110487;27;20490;-73
2022/01/15 00:15:54;;;;;;;7.53;3.60;;;9.70;99.90;;;;;;5126872;27;20063;-73
2022/01/15 00:18:29;;;;;;;4.95;3.40;;;10.70;99.90;;;;;;5127683;27;20696;-72
2022/01/15 00:20:55;;;;;;;;;;;10.70;99.90;;;;;;5126664;27;20046;-71
2022/01/15 00:23:20;;;;;;;6.60;3.28;;;9.30;99.90;;;;;;5127385;27;20392;-72
2022/01/15 00:25:46;;;;;;;5.68;3.30;;;10.10;99.90;;;;;;5074154;27;20057;-72
2022/01/15 00:28:11;;;;;;;7.10;3.95;;;9.20;99.90;;;;;;5113760;27;20035;-72
2022/01/15 00:30:37;;;;;;;7.80;3.00;;;10.70;99.90;;;;;;5085044;27;20050;-72
2022/01/15 00:33:03;;;;;;;6.28;3.50;;;9.80;99.90;;;;;;5077236;27;20112;-70
2022/01/15 00:35:29;;;;;;;5.18;3.05;;;9.50;99.90;;;;;;5110865;27;20050;-73
2022/01/15 00:37:55;;;;;;;5.88;2.95;;;9.40;99.90;;;;;;5110802;27;20509;-73
2022/01/15 00:40:21;;;;;;;5.00;2.90;;;9.20;99.90;;;;;;5128173;27;20034;-72
2022/01/15 00:42:47;;;;;;;6.38;2.90;;;10.10;99.90;;;;;;5128472;27;20031;-72
2022/01/15 00:45:18;;;;;;;7.40;3.20;;;10.60;99.90;;;;;;5123668;27;20050;-71
2022/01/15 00:47:44;;;;;;;5.53;3.15;;;10.30;99.90;;;;;;5127442;27;20073;-71
2022/01/15 00:50:11;;;;;;;5.53;3.30;;;9.40;99.90;;;;;;5117267;27;20042;-72
2022/01/15 00:52:37;;;;;;;8.88;3.30;;;9.70;99.90;;;;;;5126987;27;20035;-72
2022/01/15 00:55:04;;;;;;;8.02;3.25;;;9.90;99.90;;;;;;5108869;27;20038;-72
2022/01/15 00:57:30;;;;;;;7.63;3.00;;;9.60;99.90;;;;;;5127503;27;20034;-71
2022/01/15 00:59:55;;;;;;;8.07;2.55;;;10.70;99.90;;;;;;5125941;27;20078;-72
2022/01/15 01:02:21;;;;;;;13.07;2.97;;;9.50;99.90;;;;;;5086203;27;20472;-71
2022/01/15 01:04:47;;;;;;;10.88;2.97;;;9.30;99.90;;;;;;5118470;27;20046;-72
2022/01/15 01:07:13;;;;;;;5.15;2.30;;;10.50;99.90;;;;;;5127176;27;20089;-72
2022/01/15 01:09:58;;;;;;;4.03;2.28;;;9.80;99.90;;;;;;5092724;27;20038;-71
2022/01/15 01:20:43;;;;;;;16.02;2.33;;;10.60;99.90;;;;;;5122922;28;20059;-72
2022/01/15 01:23:09;;;;;;;12.30;2.67;;;9.10;99.90;;;;;;5096586;28;20043;-72
2022/01/15 01:25:48;;;;;;;4.47;1.98;;;9.10;99.90;;;;;;5117361;28;20058;-72
2022/01/15 01:28:30;;;;;;;5.65;2.00;;;10.30;99.90;;;;;;5102889;28;20040;-73
2022/01/15 01:31:02;;;;;;;3.47;1.85;;;9.00;99.90;;;;;;5104039;28;20580;-72
2022/01/15 01:33:33;;;;;;;2.83;1.60;;;10.30;99.90;;;;;;5116040;28;20076;-73
2022/01/15 01:41:17;;;;;;;4.32;1.70;;;10.30;99.90;;;;;;5137928;27;20624;-72
2022/01/15 01:43:50;;;;;;;8.00;2.03;;;9.30;99.90;;;;;;5123444;28;20051;-72
2022/01/15 01:48:47;;;;;;;4.93;1.60;;;10.10;99.90;;;;;;5122964;28;20118;-72
2022/01/15 01:51:25;;;;;;;3.30;1.98;;;9.90;99.90;;;;;;5106021;28;20035;-73
2022/01/15 01:53:52;;;;;;;3.58;1.60;;;9.60;99.90;;;;;;5103357;28;20104;-73
2022/01/15 01:56:19;;;;;;;3.83;1.35;;;10.20;99.90;;;;;;5104362;28;20039;-73
2022/01/15 01:58:45;;;;;;;5.32;1.50;;;10.30;99.90;;;;;;5121984;28;20039;-72
2022/01/15 02:01:11;;;;;;;2.33;1.52;;;10.20;99.90;;;;;;5123952;28;20078;-72
2022/01/15 02:03:37;;;;;;;2.97;1.30;;;8.90;99.90;;;;;;5123098;28;20067;-72
2022/01/15 02:06:03;;;;;;;7.25;1.25;;;8.90;99.90;;;;;;5103689;28;20051;-72
2022/01/15 02:08:32;;;;;;;3.17;1.20;;;10.40;99.90;;;;;;5104090;28;20039;-73
2022/01/15 02:11:00;;;;;;;1.55;1.08;;;10.30;99.90;;;;;;5122813;27;20043;-73
2022/01/15 02:13:26;;;;;;;3.67;1.33;;;9.70;99.90;;;;;;5106484;27;20164;-73
2022/01/15 02:15:51;;;;;;;3.55;1.10;;;8.90;99.90;;;;;;5107973;27;20484;-72
2022/01/15 02:18:18;;;;;;;1.15;0.80;;;10.00;99.90;;;;;;5123155;27;20058;-72
2022/01/15 02:25:59;;;;;;;1.40;0.80;;;10.00;99.90;;;;;;5118235;27;20103;-72
2022/01/15 02:28:27;;;;;;;2.95;0.80;;;10.20;99.90;;;;;;5105039;27;20037;-73
2022/01/15 02:31:06;;;;;;;1.98;1.00;;;10.20;99.90;;;;;;5111939;27;20039;-72
2022/01/15 02:33:33;;;;;;;2.25;0.77;;;9.80;99.90;;;;;;5114826;27;20084;-75
2022/01/15 02:36:00;;;;;;;2.15;1.10;;;10.30;99.90;;;;;;5114188;27;20060;-74
2022/01/15 02:38:26;;;;;;;5.03;1.02;;;9.80;99.90;;;;;;5114485;27;20043;-74
2022/01/15 02:40:52;;;;;;;1.35;0.93;;;9.20;99.90;;;;;;5111269;28;20089;-74
2022/01/15 02:43:21;;;;;;;21.77;1.80;;;9.20;99.90;;;;;;5094603;28;20043;-74
2022/01/15 02:45:54;;;;;;;2.72;0.82;;;10.20;99.90;;;;;;5108652;27;20036;-75
2022/01/15 02:48:22;;;;;;;1.92;1.35;;;10.20;99.90;;;;;;5113411;27;20031;-75
2022/01/15 02:50:48;;;;;;;1.92;1.13;;;10.20;99.90;;;;;;5130949;27;20566;-73
2022/01/15 02:53:16;;;;;;;5.93;1.27;;;10.20;99.90;;;;;;5114703;27;20364;-74
2022/01/15 02:55:47;;;;;;;2.97;1.20;;;9.70;99.90;;;;;;5110947;28;20474;-75
2022/01/15 02:58:15;;;;;;;15.32;2.08;;;9.30;99.90;;;;;;5099694;27;20117;-74
2022/01/15 03:00:41;;;;;;;29.08;1.98;;;10.10;99.90;;;;;;5130731;27;20218;-74
2022/01/15 03:03:07;;;;;;;56.20;2.75;;;9.00;99.90;;;;;;5129737;27;20041;-74
2022/01/15 03:05:33;;;;;;;15.32;1.30;;;9.90;99.90;;;;;;5114167;27;20039;-74
2022/01/15 03:07:59;;;;;;;33.70;2.40;;;9.30;99.90;;;;;;5131264;27;20494;-74
2022/01/15 03:10:28;;;;;;;22.63;2.47;;;9.90;99.90;;;;;;5113371;27;20093;-74
2022/01/15 03:12:55;;;;;;;14.35;1.65;;;9.20;99.90;;;;;;5131656;27;20467;-74
2022/01/15 03:15:21;;;;;;;2.63;1.25;;;9.50;99.90;;;;;;5106218;28;20047;-75
2022/01/15 03:17:48;;;;;;;19.02;1.40;;;9.30;99.90;;;;;;5119555;27;20403;-74
2022/01/15 03:20:15;;;;;;;5.25;1.45;;;10.00;99.90;;;;;;5131372;27;20047;-74
2022/01/15 03:22:41;;;;;;;5.20;1.05;;;9.40;99.90;;;;;;5096749;27;20043;-74
2022/01/15 03:25:08;;;;;;;4.05;1.20;;;10.00;99.90;;;;;;5130008;27;20073;-74
2022/01/15 03:27:34;;;;;;;19.88;1.73;;;9.40;99.90;;;;;;5131711;27;20126;-74
2022/01/15 03:30:00;;;;;;;20.17;1.90;;;9.00;99.90;;;;;;5088952;27;20118;-74
2022/01/15 03:32:25;;;;;;;13.52;1.50;;;10.00;99.90;;;;;;5131395;27;20093;-74
2022/01/15 03:34:51;;;;;;;23.13;1.90;;;8.70;99.90;;;;;;5131208;27;20035;-75
2022/01/15 03:37:17;;;;;;;21.35;2.03;;;8.90;99.90;;;;;;5111987;27;20036;-75
2022/01/15 03:39:44;;;;;;;5.60;1.42;;;9.20;99.90;;;;;;5127849;27;20092;-74
2022/01/15 03:42:12;;;;;;;7.47;1.50;;;9.80;99.90;;;;;;5090486;27;20046;-74
2022/01/15 03:44:49;;;;;;;14.50;1.35;;;8.90;99.90;;;;;;5095991;27;20440;-74
2022/01/15 03:47:16;;;;;;;15.20;1.50;;;9.00;99.90;;;;;;5113532;27;20039;-73
2022/01/15 03:49:42;;;;;;;3.60;1.10;;;8.70;99.90;;;;;;5096322;27;20519;-74
2022/01/15 03:52:10;;;;;;;2.67;1.10;;;9.10;99.90;;;;;;5114328;27;20042;-73
2022/01/15 03:54:36;;;;;;;2.88;1.13;;;8.80;99.90;;;;;;5112045;27;20038;-73
2022/01/15 03:57:03;;;;;;;1.80;1.10;;;9.70;99.90;;;;;;5126491;27;20046;-73
2022/01/15 03:59:29;;;;;;;1.50;1.17;;;9.70;99.90;;;;;;5092580;27;20031;-73
2022/01/15 04:01:55;;;;;;;4.53;1.70;;;9.10;99.90;;;;;;5109310;28;20400;-74
2022/01/15 04:04:21;;;;;;;1.52;1.17;;;10.10;99.90;;;;;;5111596;27;20051;-74
2022/01/15 04:06:47;;;;;;;1.40;1.10;;;9.00;99.90;;;;;;5110836;27;20051;-74
2022/01/15 04:09:13;;;;;;;2.97;1.33;;;9.20;99.90;;;;;;5110105;27;20062;-75
2022/01/15 04:11:40;;;;;;;2.30;1.10;;;9.70;99.90;;;;;;5120153;27;20377;-74
2022/01/15 04:14:06;;;;;;;2.10;1.13;;;8.80;99.90;;;;;;5108753;27;20023;-73
2022/01/15 04:16:32;;;;;;;2.30;1.40;;;9.60;99.90;;;;;;5092349;28;20067;-74
2022/01/15 04:18:59;;;;;;;3.03;1.38;;;9.20;99.90;;;;;;5112089;27;20043;-74
2022/01/15 04:21:26;;;;;;;1.65;1.08;;;10.10;99.90;;;;;;5109167;28;20123;-73
2022/01/15 04:23:52;;;;;;;2.83;1.02;;;8.90;99.90;;;;;;5110977;27;20039;-74
2022/01/15 04:26:23;;;;;;;3.75;1.20;;;9.00;99.90;;;;;;5112770;27;20039;-73
2022/01/15 04:28:49;;;;;;;1.40;1.00;;;8.80;99.90;;;;;;5130029;27;20079;-74
2022/01/15 04:31:16;;;;;;;2.05;1.05;;;9.30;99.90;;;;;;5111578;27;20035;-75
2022/01/15 04:33:42;;;;;;;1.95;0.90;;;10.10;99.90;;;;;;5130175;27;20467;-75
2022/01/15 04:36:09;;;;;;;1.80;1.13;;;9.80;99.90;;;;;;5129272;27;20042;-74
2022/01/15 04:38:38;;;;;;;2.35;1.00;;;9.70;99.90;;;;;;5113691;27;20541;-75
2022/01/15 04:41:04;;;;;;;2.17;1.10;;;9.00;99.90;;;;;;5112913;27;20042;-74
2022/01/15 04:43:30;;;;;;;3.47;1.20;;;8.90;99.90;;;;;;5112622;27;20047;-74
2022/01/15 04:45:56;;;;;;;1.88;1.23;;;9.20;99.90;;;;;;5080321;28;20571;-74
2022/01/15 04:48:22;;;;;;;2.78;1.38;;;9.90;99.90;;;;;;5129369;27;20126;-74
2022/01/15 04:50:48;;;;;;;2.78;1.30;;;9.20;99.90;;;;;;5111420;27;20039;-74
2022/01/15 04:53:14;;;;;;;3.53;1.25;;;8.80;99.90;;;;;;5129339;27;20042;-74
2022/01/15 04:55:40;;;;;;;2.60;1.10;;;8.90;99.90;;;;;;5111779;27;20039;-74
2022/01/15 04:58:07;;;;;;;3.22;1.40;;;9.50;99.90;;;;;;5128819;27;20031;-74
2022/01/15 05:00:34;;;;;;;5.07;1.35;;;9.70;99.90;;;;;;5112203;27;20541;-72
2022/01/15 05:03:00;;;;;;;2.88;1.55;;;9.70;99.90;;;;;;5109998;27;20535;-72
2022/01/15 05:05:27;;;;;;;2.20;1.73;;;9.50;99.90;;;;;;5129157;27;20047;-73
2022/01/15 05:07:54;;;;;;;4.13;1.30;;;10.00;99.90;;;;;;5124164;27;20035;-73
2022/01/15 05:10:24;;;;;;;1.75;1.27;;;8.90;99.90;;;;;;5118122;27;20063;-73
2022/01/15 05:12:50;;;;;;;2.00;1.20;;;9.80;99.90;;;;;;5112140;27;20086;-73
2022/01/15 05:15:18;;;;;;;1.52;1.10;;;9.90;99.90;;;;;;5112359;28;20051;-74
2022/01/15 05:17:45;;;;;;;2.88;1.55;;;10.00;99.90;;;;;;5123756;28;20108;-74
2022/01/15 05:20:17;;;;;;;4.35;1.35;;;8.90;99.90;;;;;;5099160;28;20051;-73
2022/01/15 05:22:43;;;;;;;1.90;1.15;;;8.90;99.90;;;;;;5123803;28;20043;-73
2022/01/15 05:25:13;;;;;;;4.13;1.33;;;8.70;99.90;;;;;;5099106;28;20483;-74
2022/01/15 05:27:39;;;;;;;2.35;1.23;;;10.10;99.90;;;;;;5093652;28;20031;-74
2022/01/15 05:30:06;;;;;;;2.38;1.33;;;8.60;99.90;;;;;;5129109;28;20035;-74
2022/01/15 05:32:33;;;;;;;4.10;1.45;;;8.80;99.90;;;;;;5129006;28;20498;-75
2022/01/15 05:34:58;;;;;;;4.53;1.60;;;8.60;99.90;;;;;;5128889;28;20069;-74
2022/01/15 05:37:24;;;;;;;5.30;1.42;;;10.00;99.90;;;;;;5129336;28;20379;-74
2022/01/15 05:39:50;;;;;;;5.40;1.55;;;9.60;99.90;;;;;;5129228;28;20043;-76
2022/01/15 05:42:16;;;;;;;2.75;1.10;;;9.90;99.90;;;;;;5111442;28;20045;-73
2022/01/15 05:44:42;;;;;;;1.33;1.00;;;8.60;99.90;;;;;;5128868;28;20418;-74
2022/01/15 05:47:08;;;;;;;1.88;0.98;;;9.70;99.90;;;;;;5131307;27;20043;-74
2022/01/15 05:49:34;;;;;;;4.15;1.85;;;9.80;99.90;;;;;;5115586;27;20035;-73
2022/01/15 05:52:00;;;;;;;3.28;1.30;;;8.70;99.90;;;;;;5080647;28;20472;-74
2022/01/15 05:54:26;;;;;;;1.95;1.30;;;9.90;99.90;;;;;;5098612;28;20035;-74
2022/01/15 05:56:52;;;;;;;4.00;1.10;;;9.60;99.90;;;;;;5134240;27;20071;-73
2022/01/15 05:59:18;;;;;;;4.38;1.60;;;9.80;99.90;;;;;;5089142;28;20040;-74
2022/01/15 06:01:43;;;;;;;2.42;1.38;;;9.30;99.90;;;;;;5097852;27;20126;-74
2022/01/15 06:04:09;;;;;;;3.55;1.67;;;8.60;99.90;;;;;;5113437;27;20043;-74
2022/01/15 06:06:35;;;;;;;7.15;1.88;;;8.90;99.90;;;;;;5098566;27;20039;-74
2022/01/15 06:09:03;;;;;;;2.55;1.48;;;9.40;99.90;;;;;;5132928;27;20114;-74
2022/01/15 06:11:28;;;;;;;5.93;1.30;;;8.70;99.90;;;;;;5132998;27;20047;-74
2022/01/15 06:13:54;;;;;;;5.32;1.40;;;8.80;99.90;;;;;;5111674;28;20039;-75
2022/01/15 06:16:20;;;;;;;5.72;1.38;;;10.20;99.90;;;;;;5122554;27;20070;-75
2022/01/15 06:18:46;;;;;;;3.50;1.25;;;9.90;99.90;;;;;;5114927;27;20043;-74
2022/01/15 06:21:12;;;;;;;4.45;1.40;;;9.80;99.90;;;;;;5115496;27;20046;-73
2022/01/15 06:23:38;;;;;;;3.47;1.48;;;9.90;99.90;;;;;;5131834;27;20544;-74
2022/01/15 06:26:04;;;;;;;3.85;1.60;;;8.60;99.90;;;;;;5115604;27;20043;-75
2022/01/15 06:28:30;;;;;;;3.53;1.20;;;8.50;99.90;;;;;;5115323;27;20787;-73
2022/01/15 06:30:56;;;;;;;3.22;1.50;;;9.90;99.90;;;;;;5115379;27;20114;-75
2022/01/15 06:33:22;;;;;;;4.18;1.38;;;9.80;99.90;;;;;;5091083;28;20127;-76
2022/01/15 06:35:47;;;;;;;3.40;1.65;;;9.90;99.90;;;;;;5112436;27;20043;-75
2022/01/15 06:38:13;;;;;;;5.80;1.20;;;9.80;99.90;;;;;;5132268;27;20035;-74
2022/01/15 06:40:39;;;;;;;3.22;1.10;;;8.90;99.90;;;;;;5114725;27;20046;-74
2022/01/15 06:43:06;;;;;;;2.35;1.08;;;8.60;99.90;;;;;;5094298;28;20115;-74
2022/01/15 06:45:33;;;;;;;4.43;1.42;;;9.10;99.90;;;;;;5123895;27;20040;-74
2022/01/15 06:47:58;;;;;;;5.40;1.42;;;8.90;99.90;;;;;;5094608;28;20047;-74
2022/01/15 06:50:25;;;;;;;2.80;1.30;;;8.90;99.90;;;;;;5105518;27;20035;-74
2022/01/15 06:52:51;;;;;;;3.58;1.10;;;8.60;99.90;;;;;;5130713;27;20038;-73
2022/01/15 06:55:17;;;;;;;3.67;1.40;;;9.10;99.90;;;;;;5096451;27;20391;-74
2022/01/15 06:57:43;;;;;;;4.50;1.48;;;8.50;99.90;;;;;;5130530;27;20039;-73
2022/01/15 07:00:11;;;;;;;5.50;2.00;;;9.10;99.90;;;;;;5131624;27;20083;-74
2022/01/15 07:02:38;;;;;;;4.70;2.10;;;8.60;99.90;;;;;;5131224;27;20061;-73
2022/01/15 07:05:05;;;;;;;10.55;3.35;;;9.30;99.90;;;;;;5131339;27;20071;-73
2022/01/15 07:07:31;;;;;;;4.72;2.20;;;9.40;99.90;;;;;;5131269;27;20043;-76
2022/01/15 07:09:57;;;;;;;6.00;2.15;;;9.70;99.90;;;;;;5114994;27;20118;-75
2022/01/15 07:12:23;;;;;;;5.65;2.45;;;9.50;99.90;;;;;;5132227;27;20114;-75
2022/01/15 07:14:48;;;;;;;7.25;2.53;;;9.10;99.90;;;;;;5133586;27;20039;-75
2022/01/15 07:17:16;;;;;;;6.03;2.33;;;9.00;99.90;;;;;;5131612;27;20059;-75
2022/01/15 07:19:42;;;;;;;4.38;2.70;;;9.70;99.90;;;;;;5130920;27;20043;-76
2022/01/15 07:22:08;;;;;;;7.07;2.95;;;9.80;99.90;;;;;;5131467;27;20555;-76
2022/01/15 07:24:38;;;;;;;5.63;2.70;;;8.60;99.90;;;;;;5131030;27;20039;-75
2022/01/15 07:27:04;;;;;;;9.00;3.13;;;9.70;99.90;;;;;;5098498;27;20027;-75
2022/01/15 07:29:31;;;;;;;4.38;2.63;;;8.60;99.90;;;;;;5113481;27;20741;-74
2022/01/15 07:31:57;;;;;;;4.18;2.25;;;8.80;99.90;;;;;;5114563;27;20092;-74
2022/01/15 07:34:23;;;;;;;4.43;2.20;;;8.60;99.90;;;;;;5091733;27;20067;-73
2022/01/15 07:36:57;;;;;;;4.45;2.70;;;8.60;99.90;;;;;;5091847;28;20954;-73
2022/01/15 07:39:23;;;;;;;6.57;2.78;;;9.20;99.90;;;;;;5103958;27;20127;-74
2022/01/15 07:41:49;;;;;;;6.18;2.80;;;9.30;99.90;;;;;;5130414;27;20785;-75
2022/01/15 07:44:15;;;;;;;3.50;2.38;;;9.60;99.90;;;;;;5131209;27;20043;-73
2022/01/15 07:46:41;;;;;;;3.25;2.17;;;8.50;99.90;;;;;;5129500;27;20038;-75
2022/01/15 07:49:07;;;;;;;4.78;2.70;;;8.70;99.90;;;;;;5101458;27;20039;-73
2022/01/15 07:51:32;;;;;;;4.03;2.38;;;9.50;99.90;;;;;;5094937;27;20043;-74
2022/01/15 07:53:59;;;;;;;5.45;3.28;;;8.80;99.90;;;;;;5108143;28;20035;-74
2022/01/15 07:56:25;;;;;;;5.15;2.78;;;9.40;99.90;;;;;;5120113;27;20035;-74
2022/01/15 07:58:51;;;;;;;5.90;2.95;;;8.70;99.90;;;;;;5114092;27;20405;-74
2022/01/15 08:01:17;;;;;;;5.82;2.83;;;8.80;99.90;;;;;;5129200;27;20445;-75
2022/01/15 08:03:44;;;;;;;4.32;2.38;;;9.00;99.90;;;;;;5093715;27;20046;-74
2022/01/15 08:06:11;;;;;;;4.57;3.00;;;9.80;99.90;;;;;;5095354;27;20074;-74
2022/01/15 08:08:37;;;;;;;4.18;2.70;;;9.50;99.90;;;;;;5096429;27;20353;-72
2022/01/15 08:11:03;;;;;;;4.30;2.90;;;8.70;99.90;;;;;;5129651;27;20050;-77
2022/01/15 08:13:31;;;;;;;4.55;2.85;;;8.60;99.90;;;;;;5129659;27;20031;-75
2022/01/15 08:15:57;;;;;;;4.22;2.80;;;9.60;99.90;;;;;;5129027;27;20051;-72
2022/01/15 08:18:24;;;;;;;4.28;2.78;;;9.50;99.90;;;;;;5113090;27;20035;-74
2022/01/15 08:20:50;;;;;;;5.80;2.97;;;9.60;99.90;;;;;;5129083;27;20103;-74
2022/01/15 08:23:16;;;;;;;5.30;3.10;;;9.70;99.90;;;;;;5130430;27;20062;-76
2022/01/15 08:25:42;;;;;;;4.88;2.88;;;9.00;99.90;;;;;;5130169;27;20545;-75
2022/01/15 08:28:07;;;;;;;5.57;3.10;;;9.40;99.90;;;;;;5113953;27;20506;-74
2022/01/15 08:30:34;;;;;;;3.97;2.60;;;9.70;99.90;;;;;;5122074;27;20027;-74
2022/01/15 08:32:59;;;;;;;4.57;2.50;;;8.60;99.90;;;;;;5132377;27;20061;-74
2022/01/15 08:35:25;;;;;;;3.78;2.25;;;8.60;99.90;;;;;;5096004;27;20035;-75
2022/01/15 08:37:51;;;;;;;4.60;2.78;;;8.80;99.90;;;;;;5126161;27;20430;-74
2022/01/15 08:40:20;;;;;;;4.03;2.42;;;8.70;99.90;;;;;;5123003;27;20035;-75
2022/01/15 08:42:46;;;;;;;3.28;1.90;;;8.50;99.90;;;;;;5104008;27;20051;-74
2022/01/15 08:45:13;;;;;;;4.68;2.50;;;9.20;99.90;;;;;;5111482;27;20387;-74
2022/01/15 08:47:39;;;;;;;4.18;2.10;;;8.40;99.90;;;;;;5108197;27;20379;-73
2022/01/15 08:50:07;;;;;;;4.70;2.28;;;8.60;99.90;;;;;;5124547;27;20038;-72
2022/01/15 08:52:34;;;;;;;3.22;1.92;;;8.60;99.90;;;;;;5131718;27;20039;-73
2022/01/15 08:55:01;;;;;;;4.05;2.50;;;8.70;99.90;;;;;;5124483;27;20035;-73
2022/01/15 08:57:27;;;;;;;3.67;2.42;;;8.40;99.90;;;;;;5129570;27;20054;-71
2022/01/15 08:59:53;;;;;;;3.67;2.03;;;8.70;99.90;;;;;;5112909;27;20038;-73
2022/01/15 09:02:19;;;;;;;3.65;2.63;;;9.00;99.90;;;;;;5127515;27;20042;-71
2022/01/15 09:04:44;;;;;;;3.95;2.40;;;8.40;99.90;;;;;;5129789;27;20042;-72
2022/01/15 09:07:13;;;;;;;3.88;2.30;;;9.10;99.90;;;;;;5130023;27;20043;-74
2022/01/15 09:09:40;;;;;;;4.30;2.58;;;8.50;99.90;;;;;;5112110;27;20035;-73
2022/01/15 09:12:06;;;;;;;3.70;2.50;;;8.50;99.90;;;;;;5129491;27;20035;-74
2022/01/15 09:14:32;;;;;;;4.00;2.05;;;8.70;99.90;;;;;;5128660;27;20091;-72
2022/01/15 09:16:58;;;;;;;4.82;2.28;;;8.20;99.90;;;;;;5110986;28;20050;-72
2022/01/15 09:19:23;;;;;;;3.90;2.58;;;8.70;99.90;;;;;;5129234;28;20141;-75
2022/01/15 09:21:49;;;;;;;4.80;2.00;;;8.90;99.90;;;;;;5110864;28;20125;-74
2022/01/15 09:24:15;;;;;;;4.63;2.47;;;9.10;99.90;;;;;;5095296;28;20051;-74
2022/01/15 09:32:14;;;;;;;3.95;2.30;;;9.30;99.90;;;;;;5095228;28;20043;-71
2022/01/15 09:34:41;;;;;;;4.88;2.30;;;8.50;99.90;;;;;;5122896;28;20027;-72
2022/01/15 09:37:07;;;;;;;3.65;2.00;;;8.20;99.90;;;;;;5110712;28;20148;-71
2022/01/15 09:39:33;;;;;;;3.15;2.17;;;9.00;99.90;;;;;;5110748;28;20119;-72
2022/01/15 09:41:58;;;;;;;4.43;2.80;;;9.10;99.90;;;;;;5110026;28;21498;-73
2022/01/15 09:44:25;;;;;;;4.25;2.83;;;8.70;99.90;;;;;;5110785;28;20112;-72
2022/01/15 09:46:52;;;;;;;3.97;2.88;;;8.80;99.90;;;;;;5084891;28;20071;-72
2022/01/15 09:49:20;;;;;;;4.70;2.67;;;8.10;99.90;;;;;;5088111;28;21602;-72
2022/01/15 09:51:46;;;;;;;4.22;2.75;;;8.60;99.90;;;;;;5128733;28;20114;-72
2022/01/15 09:54:17;;;;;;;5.00;2.67;;;8.10;99.90;;;;;;5108045;28;20132;-71
2022/01/15 09:56:43;;;;;;;6.80;2.92;;;8.50;99.90;;;;;;5124379;28;20043;-73
2022/01/15 09:59:10;;;;;;;5.97;3.10;;;8.30;99.90;;;;;;5096453;28;20046;-73
2022/01/15 10:01:36;;;;;;;5.78;3.47;;;8.30;99.90;;;;;;5108384;28;20046;-73
2022/01/15 10:04:02;;;;;;;8.23;3.75;;;8.30;99.90;;;;;;5126402;28;20039;-73
2022/01/15 10:06:27;;;;;;;9.65;4.97;;;8.00;99.90;;;;;;5108740;28;20140;-73
2022/01/15 10:09:09;;;;;;;10.13;5.03;;;8.60;99.90;;;;;;5075084;28;20561;-74
2022/01/15 10:11:44;;;;;;;10.18;4.85;;;8.50;99.90;;;;;;5106805;28;20035;-74
2022/01/15 10:14:26;;;;;;;;;;;8.20;99.90;;;;;;5126315;28;20403;-73
2022/01/15 10:16:53;;;;;;;12.27;5.75;;;8.60;99.90;;;;;;5126122;28;19927;-73
2022/01/15 10:19:37;;;;;;;10.88;5.47;;;8.30;99.90;;;;;;5104461;28;20046;-74
2022/01/15 10:22:10;;;;;;;10.70;5.00;;;8.50;99.90;;;;;;5091328;28;20061;-74
2022/01/15 10:24:41;;;;;;;11.32;6.03;;;8.00;99.90;;;;;;5122379;28;20126;-73
2022/01/15 10:27:18;;;;;;;13.43;6.93;;;7.80;99.90;;;;;;5121427;28;20380;-73
2022/01/15 10:30:07;;;;;;;13.27;6.80;;;7.80;99.90;;;;;;5102744;28;20042;-74
2022/01/15 10:32:35;;;;;;;15.50;8.10;;;8.60;99.90;;;;;;5089907;28;20132;-73
2022/01/15 10:35:09;;;;;;;15.20;7.90;;;8.30;99.90;;;;;;5118837;27;20047;-74
2022/01/15 10:37:56;;;;;;;13.60;6.97;;;8.50;99.90;;;;;;5108524;27;20049;-73
2022/01/15 10:40:37;;;;;;;14.43;8.10;;;8.00;99.90;;;;;;5108179;27;20054;-74
2022/01/15 10:43:03;;;;;;;16.45;7.72;;;8.60;99.90;;;;;;5093208;27;20117;-73
2022/01/15 10:45:31;;;;;;;13.40;7.18;;;7.80;99.90;;;;;;5089518;27;20104;-72
2022/01/15 10:48:01;;;;;;;15.02;8.13;;;8.00;99.90;;;;;;5106383;27;20099;-73
2022/01/15 10:50:33;;;;;;;14.77;6.97;;;7.70;99.90;;;;;;5124785;27;20050;-72
2022/01/15 10:53:12;;;;;;;14.32;7.57;;;8.30;99.90;;;;;;5123007;27;20039;-72
2022/01/15 10:55:39;;;;;;;11.55;6.57;;;8.40;99.90;;;;;;5119670;27;20049;-73
2022/01/15 10:58:14;;;;;;;13.10;7.05;;;8.10;99.90;;;;;;5124570;27;20080;-73
2022/01/15 11:00:50;;;;;;;12.35;6.30;;;7.50;99.90;;;;;;5108167;27;20046;-76
2022/01/15 11:03:17;;;;;;;11.77;6.55;;;7.50;99.90;;;;;;5106998;27;20043;-74
2022/01/15 11:05:49;;;;;;;13.23;7.28;;;8.20;99.90;;;;;;5107545;27;20047;-74
2022/01/15 11:08:18;;;;;;;15.63;8.07;;;7.80;99.90;;;;;;5092816;27;20500;-73
2022/01/15 11:10:44;;;;;;;11.27;5.93;;;7.40;99.90;;;;;;5109053;27;20038;-75
2022/01/15 11:13:14;;;;;;;12.63;6.90;;;7.70;99.90;;;;;;5107943;27;20062;-76
2022/01/15 11:15:42;;;;;;;10.73;5.85;;;7.70;99.90;;;;;;5110459;27;20078;-75
2022/01/15 11:18:14;;;;;;;12.82;7.00;;;8.20;99.90;;;;;;5128088;27;20050;-73
2022/01/15 11:20:46;;;;;;;14.73;7.10;;;8.00;99.90;;;;;;5111267;27;20047;-74
2022/01/15 11:23:12;;;;;;;15.43;7.50;;;7.40;99.90;;;;;;5110532;27;20066;-75
2022/01/15 11:25:39;;;;;;;11.70;6.53;;;7.80;99.90;;;;;;5111058;27;20121;-76
2022/01/15 11:28:05;;;;;;;12.82;7.38;;;8.00;99.90;;;;;;5093428;27;20124;-75
2022/01/15 11:30:32;;;;;;;15.27;8.02;;;8.00;99.90;;;;;;5111116;27;20064;-73
2022/01/15 11:32:59;;;;;;;15.15;7.32;;;8.00;99.90;;;;;;5109682;27;20038;-73
2022/01/15 11:35:37;;;;;;;12.32;6.43;;;7.60;99.90;;;;;;5127742;27;20045;-74
2022/01/15 11:38:03;;;;;;;12.40;6.82;;;7.40;99.90;;;;;;5127459;27;20046;-74
2022/01/15 11:40:43;;;;;;;12.32;7.20;;;7.40;99.90;;;;;;5127918;27;20043;-74
2022/01/15 11:43:24;;;;;;;11.43;6.20;;;7.80;99.90;;;;;;5109172;27;20562;-74
2022/01/15 11:45:52;;;;;;;13.20;6.90;;;7.50;99.90;;;;;;5109815;27;20039;-74
2022/01/15 11:48:27;;;;;;;13.88;7.55;;;7.60;99.90;;;;;;5110167;27;20035;-74
2022/01/15 11:51:14;;;;;;;11.55;7.00;;;7.30;99.90;;;;;;5126965;27;20041;-74
2022/01/15 11:54:10;;;;;;;11.35;6.70;;;7.60;99.90;;;;;;5110013;27;20034;-74
2022/01/15 11:56:44;;;;;;;14.55;10.98;;;7.50;99.90;;;;;;5117494;27;20110;-74
2022/01/15 11:59:25;;;;;;;13.45;8.38;;;7.60;99.90;;;;;;5112807;27;20140;-73
2022/01/15 12:01:56;;;;;;;12.30;7.25;;;7.80;99.90;;;;;;5127023;27;20157;-75
2022/01/15 12:04:33;;;;;;;11.57;6.75;;;7.60;99.90;;;;;;5126608;27;20382;-73
2022/01/15 12:07:05;;;;;;;11.60;7.72;;;7.20;99.90;;;;;;5126753;27;20039;-74
2022/01/15 12:09:34;;;;;;;14.60;7.68;;;7.30;99.90;;;;;;5108774;27;20035;-73
2022/01/15 12:12:01;;;;;;;13.23;7.95;;;7.60;99.90;;;;;;5109863;27;20038;-74
2022/01/15 12:14:48;;;;;;;11.55;7.43;;;7.80;99.90;;;;;;5111389;27;20030;-74
2022/01/15 12:17:25;;;;;;;11.50;7.25;;;7.40;99.90;;;;;;5107539;27;20047;-74
2022/01/15 12:19:53;;;;;;;13.45;8.32;;;7.40;99.90;;;;;;5127293;27;20054;-73
2022/01/15 12:22:40;;;;;;;12.50;8.27;;;7.30;99.90;;;;;;5109885;27;20049;-73
2022/01/15 12:25:06;;;;;;;14.55;9.02;;;8.00;99.90;;;;;;5125548;27;20045;-74
2022/01/15 12:27:33;;;;;;;14.40;8.50;;;7.10;99.90;;;;;;5127071;27;20660;-73
2022/01/15 12:30:19;;;;;;;14.38;9.35;;;7.80;99.90;;;;;;5109434;27;20035;-73
2022/01/15 12:32:49;;;;;;;14.52;8.27;;;7.20;99.90;;;;;;5092380;27;20656;-74
2022/01/15 12:35:21;;;;;;;13.98;8.50;;;7.40;99.90;;;;;;5126100;27;20424;-73
2022/01/15 12:37:59;;;;;;;14.27;7.80;;;7.70;99.90;;;;;;5108809;27;20063;-73
2022/01/15 12:40:43;;;;;;;14.25;9.23;;;7.80;99.90;;;;;;5126239;27;20042;-73
2022/01/15 12:43:21;;;;;;;14.07;8.85;;;7.70;99.90;;;;;;5120029;27;20045;-74
2022/01/15 12:45:49;;;;;;;15.65;9.48;;;7.80;99.90;;;;;;5109336;27;20125;-73
2022/01/15 12:48:17;;;;;;;14.07;8.82;;;7.40;99.90;;;;;;5108619;27;20035;-74
2022/01/15 12:50:47;;;;;;;16.52;9.63;;;7.90;99.90;;;;;;5126161;27;20038;-74
2022/01/15 12:53:16;;;;;;;18.58;10.25;;;7.80;99.90;;;;;;5108380;27;20119;-73
2022/01/15 12:55:42;;;;;;;16.30;9.43;;;7.30;99.90;;;;;;5107687;27;20031;-73
2022/01/15 12:58:18;;;;;;;16.05;9.20;;;7.30;99.90;;;;;;5108416;27;20046;-73
2022/01/15 13:00:45;;;;;;;17.77;10.00;;;7.70;99.90;;;;;;5108990;27;20046;-73
2022/01/15 13:03:13;;;;;;;20.20;11.55;;;7.40;99.90;;;;;;5108040;27;20046;-74
2022/01/15 13:05:42;;;;;;;17.48;9.60;;;7.60;99.90;;;;;;5109433;27;20071;-74
2022/01/15 13:08:12;;;;;;;18.75;10.95;;;7.90;99.90;;;;;;5125563;27;20035;-74
2022/01/15 13:10:57;;;;;;;20.73;11.98;;;7.50;99.90;;;;;;5109234;27;20442;-74
2022/01/15 13:13:33;;;;;;;17.17;9.50;;;7.00;99.90;;;;;;5125797;27;20092;-74
2022/01/15 13:16:22;;;;;;;17.73;9.90;;;6.90;99.90;;;;;;5084819;28;20642;-73
2022/01/15 13:19:02;;;;;;;22.27;13.57;;;7.70;99.90;;;;;;5101888;28;20055;-74
2022/01/15 13:21:34;;;;;;;20.65;11.32;;;7.30;99.90;;;;;;5085271;28;20158;-73
2022/01/15 13:24:07;;;;;;;16.02;8.00;;;7.10;99.90;;;;;;5093183;28;20039;-73
2022/01/15 13:26:36;;;;;;;18.85;9.82;;;7.10;99.90;;;;;;5104939;28;20582;-74